Penfield, Pennsylvania
Current Conditions -  °F | °C
As of 9:54 PM on Tuesday 25 Nov 2014 (Local Time) from KFIG Reporting Station
Clear Clear  
Wind Chill: 29°   Ceiling: Unl
Heat Index: 33°   Visibility: 10mi
Dew Point: 24°   Wind: 5mph
Humidity: 70%   Direction: NA
Pressure: 30.14"   Gusts: NA
Location:  41.21°N, 78.58°W
Report Text: KFIG 260254Z AUTO VRB04KT 10SM CLR 01/M04 A3014 RMK AO2 SLP218 T00061044 51015
Loading
Personal Weather Stations






























Interactive Weather Map New forecast layout! Learn more

10-Day Weather Forecast

Advertisements
Track Severe Weather on mobile